Time;durP1;ratioP1;P1;durP2;ratioP2;P2;SDS_P1;SDS_P2;PMS_P1;PMS_P2;Temp;Humidity;BMP_temperature;BMP_pressure;BME280_temperature;BME280_humidity;BME280_pressure;Samples;Min_cycle;Max_cycle;Signal;HPM_P1;HPM_P2
2022/01/17 00:01:37;;;;;;;31.63;16.05;;;;;;;;;;5097070;28;20099;-68
2022/01/17 00:04:03;;;;;;;29.70;18.15;;;;;;;;;;5095251;28;20024;-68
2022/01/17 00:06:29;;;;;;;55.47;28.35;;;;;;;;;;5097117;28;20032;-68
2022/01/17 00:08:56;;;;;;;57.08;32.03;;;;;;;;;;5097132;28;20020;-68
2022/01/17 00:11:22;;;;;;;59.58;28.30;;;;;;;;;;5096379;28;20081;-69
2022/01/17 00:13:49;;;;;;;38.55;20.25;;;;;;;;;;5096715;28;20024;-68
2022/01/17 00:16:20;;;;;;;33.67;18.02;;;;;;;;;;5096572;28;20043;-68
2022/01/17 00:21:14;;;;;;;32.72;16.80;;;;;;;;;;5096897;28;20134;-68
2022/01/17 00:23:40;;;;;;;34.63;17.15;;;;;;;;;;5095298;28;20051;-69
2022/01/17 00:26:07;;;;;;;38.60;18.38;;;;;;;;;;5096666;28;20024;-68
2022/01/17 00:28:33;;;;;;;38.33;17.83;;;;;;;;;;5096432;28;20052;-68
2022/01/17 00:31:01;;;;;;;38.30;17.55;;;;;;;;;;5096237;28;20024;-68
2022/01/17 00:33:28;;;;;;;30.48;17.17;;;;;;;;;;5096418;28;20057;-68
2022/01/17 00:35:54;;;;;;;27.98;15.98;;;;;;;;;;5096336;28;20076;-68
2022/01/17 00:38:20;;;;;;;34.03;16.52;;;;;;;;;;5095856;28;20025;-68
2022/01/17 00:40:47;;;;;;;28.63;14.73;;;;;;;;;;5096242;28;20499;-68
2022/01/17 00:43:14;;;;;;;31.10;16.33;;;;;;;;;;5096224;28;20032;-68
2022/01/17 00:45:43;;;;;;;30.38;15.27;;;;;;;;;;5095799;28;20020;-68
2022/01/17 00:48:09;;;;;;;30.70;16.17;;;;;;;;;;5095689;28;20388;-68
2022/01/17 00:50:37;;;;;;;28.60;14.30;;;;;;;;;;5095996;28;20020;-68
2022/01/17 00:53:07;;;;;;;30.17;13.55;;;;;;;;;;5095573;28;20020;-68
2022/01/17 00:55:34;;;;;;;28.48;14.52;;;;;;;;;;5095940;28;20111;-69
2022/01/17 00:58:01;;;;;;;24.05;12.20;;;;;;;;;;5096152;28;20468;-68
2022/01/17 01:00:27;;;;;;;26.00;13.32;;;;;;;;;;5095434;28;20441;-69
2022/01/17 01:02:54;;;;;;;27.20;13.85;;;;;;;;;;5096108;28;20499;-69
2022/01/17 01:05:20;;;;;;;30.77;16.45;;;;;;;;;;5095761;28;20031;-69
2022/01/17 01:07:47;;;;;;;32.70;16.20;;;;;;;;;;5095368;28;20472;-69
2022/01/17 01:10:13;;;;;;;35.58;17.48;;;;;;;;;;5095715;28;20058;-69
2022/01/17 01:12:40;;;;;;;33.88;17.73;;;;;;;;;;5095689;28;20027;-68
2022/01/17 01:15:12;;;;;;;29.70;16.73;;;;;;;;;;5095164;28;20475;-68
2022/01/17 01:17:50;;;;;;;44.03;19.75;;;;;;;;;;5095363;28;20090;-68
2022/01/17 01:28:13;;;;;;;33.20;17.45;;;;;;;;;;5094955;28;20146;-70
2022/01/17 01:30:44;;;;;;;30.55;15.90;;;;;;;;;;5095232;28;20472;-68
2022/01/17 01:33:10;;;;;;;27.65;13.75;;;;;;;;;;5095930;28;20062;-68
2022/01/17 01:35:44;;;;;;;26.65;12.77;;;;;;;;;;5094796;28;20050;-68
2022/01/17 01:38:11;;;;;;;28.23;13.38;;;;;;;;;;5095331;28;20076;-68
2022/01/17 01:40:37;;;;;;;34.10;16.10;;;;;;;;;;5093820;28;20126;-68
2022/01/17 01:43:04;;;;;;;36.00;19.73;;;;;;;;;;5094651;28;20023;-68
2022/01/17 01:45:30;;;;;;;34.70;18.10;;;;;;;;;;5095255;28;20388;-68
2022/01/17 01:47:57;;;;;;;28.83;15.00;;;;;;;;;;5094961;28;20031;-68
2022/01/17 01:50:23;;;;;;;37.70;19.42;;;;;;;;;;5094427;28;20095;-69
2022/01/17 01:52:49;;;;;;;31.50;16.33;;;;;;;;;;5094915;28;20055;-68
2022/01/17 01:55:17;;;;;;;39.92;19.55;;;;;;;;;;5094511;28;20027;-68
2022/01/17 01:57:44;;;;;;;31.63;16.65;;;;;;;;;;5094603;28;20089;-69
2022/01/17 02:00:11;;;;;;;33.10;15.65;;;;;;;;;;5092665;28;20027;-69
2022/01/17 02:02:38;;;;;;;30.90;16.13;;;;;;;;;;5094276;28;20028;-69
2022/01/17 02:05:05;;;;;;;41.15;20.73;;;;;;;;;;5094586;28;20020;-69
2022/01/17 02:07:32;;;;;;;30.23;15.73;;;;;;;;;;5094566;28;20468;-69
2022/01/17 02:09:58;;;;;;;48.03;23.92;;;;;;;;;;5094421;28;20069;-68
2022/01/17 02:12:25;;;;;;;47.65;23.15;;;;;;;;;;5094789;28;20051;-69
2022/01/17 02:14:54;;;;;;;45.92;22.42;;;;;;;;;;5094672;28;20016;-68
2022/01/17 02:17:21;;;;;;;38.55;19.20;;;;;;;;;;5093784;28;20051;-68
2022/01/17 02:19:56;;;;;;;43.40;21.58;;;;;;;;;;5094312;28;20047;-68
2022/01/17 02:22:23;;;;;;;42.10;20.30;;;;;;;;;;5094319;28;20062;-68
2022/01/17 02:24:49;;;;;;;39.97;20.48;;;;;;;;;;5093824;28;20095;-68
2022/01/17 02:27:15;;;;;;;31.42;20.35;;;;;;;;;;5094531;28;20024;-68
2022/01/17 02:29:42;;;;;;;42.20;22.35;;;;;;;;;;5094223;28;20379;-68
2022/01/17 02:32:08;;;;;;;36.97;18.88;;;;;;;;;;5093786;28;20047;-68
2022/01/17 02:34:39;;;;;;;32.88;16.60;;;;;;;;;;5094214;28;20031;-68
2022/01/17 02:37:05;;;;;;;32.88;16.67;;;;;;;;;;5094361;28;20067;-68
2022/01/17 02:39:31;;;;;;;33.58;17.00;;;;;;;;;;5093545;28;20103;-68
2022/01/17 02:42:01;;;;;;;36.47;17.35;;;;;;;;;;5093950;28;20028;-68
2022/01/17 02:44:27;;;;;;;34.05;17.65;;;;;;;;;;5093574;28;20021;-68
2022/01/17 02:46:53;;;;;;;34.90;16.42;;;;;;;;;;5093895;28;20099;-68
2022/01/17 02:49:19;;;;;;;37.15;18.10;;;;;;;;;;5093827;28;20020;-68
2022/01/17 02:51:48;;;;;;;34.22;19.08;;;;;;;;;;5093439;28;20028;-68
2022/01/17 02:54:15;;;;;;;42.28;21.10;;;;;;;;;;5093876;28;20070;-68
2022/01/17 02:56:41;;;;;;;50.45;24.20;;;;;;;;;;5093656;28;20024;-69
2022/01/17 02:59:07;;;;;;;46.03;23.55;;;;;;;;;;5093262;28;20391;-68
2022/01/17 03:01:34;;;;;;;36.40;19.15;;;;;;;;;;5093677;28;20030;-68
2022/01/17 03:04:00;;;;;;;38.40;18.67;;;;;;;;;;5093699;28;20024;-68
2022/01/17 03:06:28;;;;;;;39.92;18.10;;;;;;;;;;5093397;28;20099;-68
2022/01/17 03:08:54;;;;;;;37.60;17.35;;;;;;;;;;5092316;28;20031;-68
2022/01/17 03:11:22;;;;;;;38.25;19.00;;;;;;;;;;5093332;28;20020;-68
2022/01/17 03:13:50;;;;;;;36.97;19.15;;;;;;;;;;5093229;28;20465;-68
2022/01/17 03:16:17;;;;;;;33.70;18.92;;;;;;;;;;5093129;28;20052;-68
2022/01/17 03:18:46;;;;;;;39.38;18.67;;;;;;;;;;5093439;28;20024;-68
2022/01/17 03:21:14;;;;;;;36.83;18.98;;;;;;;;;;5093145;28;20016;-68
2022/01/17 03:23:40;;;;;;;43.10;21.60;;;;;;;;;;5093492;28;20372;-69
2022/01/17 03:26:07;;;;;;;35.65;18.08;;;;;;;;;;5093417;28;20031;-68
2022/01/17 03:28:34;;;;;;;38.70;19.00;;;;;;;;;;5092954;28;20030;-68
2022/01/17 03:31:00;;;;;;;35.28;17.52;;;;;;;;;;5093358;28;20480;-68
2022/01/17 03:33:28;;;;;;;38.63;18.13;;;;;;;;;;5093387;28;20097;-68
2022/01/17 03:35:54;;;;;;;37.72;18.55;;;;;;;;;;5092843;28;20020;-68
2022/01/17 03:38:21;;;;;;;36.63;18.50;;;;;;;;;;5093268;28;20463;-68
2022/01/17 03:40:50;;;;;;;40.60;20.52;;;;;;;;;;5092864;28;20475;-68
2022/01/17 03:43:17;;;;;;;37.00;18.85;;;;;;;;;;5093264;28;20051;-68
2022/01/17 03:45:45;;;;;;;33.00;17.83;;;;;;;;;;5093790;28;20099;-68
2022/01/17 03:48:11;;;;;;;41.35;19.63;;;;;;;;;;5092910;28;20099;-68
2022/01/17 03:50:37;;;;;;;41.47;17.55;;;;;;;;;;5093256;28;20380;-68
2022/01/17 03:53:04;;;;;;;32.67;16.10;;;;;;;;;;5093206;28;20169;-68
2022/01/17 03:55:33;;;;;;;27.50;14.73;;;;;;;;;;5092757;28;20021;-68
2022/01/17 03:58:00;;;;;;;28.73;15.38;;;;;;;;;;5093318;28;20036;-68
2022/01/17 04:00:27;;;;;;;34.42;17.50;;;;;;;;;;5093130;28;20021;-68
2022/01/17 04:02:54;;;;;;;31.52;15.50;;;;;;;;;;5092702;28;20095;-68
2022/01/17 04:05:21;;;;;;;31.85;16.55;;;;;;;;;;5093085;28;20460;-68
2022/01/17 04:07:47;;;;;;;37.35;17.13;;;;;;;;;;5091703;28;20050;-68
2022/01/17 04:10:14;;;;;;;30.05;15.85;;;;;;;;;;5092722;28;20115;-68
2022/01/17 04:12:41;;;;;;;45.25;20.15;;;;;;;;;;5093259;28;20040;-68
2022/01/17 04:15:07;;;;;;;27.98;13.55;;;;;;;;;;5093013;28;20023;-68
2022/01/17 04:17:34;;;;;;;34.53;14.38;;;;;;;;;;5092346;28;20048;-68
2022/01/17 04:20:06;;;;;;;25.60;13.38;;;;;;;;;;5091689;28;20357;-68
2022/01/17 04:22:39;;;;;;;30.73;14.45;;;;;;;;;;5093141;28;20048;-68
2022/01/17 04:25:06;;;;;;;33.97;14.50;;;;;;;;;;5096042;28;20375;-68
2022/01/17 04:27:32;;;;;;;27.58;13.35;;;;;;;;;;5096629;28;20058;-68
2022/01/17 04:30:00;;;;;;;24.08;13.05;;;;;;;;;;5096104;28;20074;-68
2022/01/17 04:32:26;;;;;;;20.20;10.63;;;;;;;;;;5095200;28;20383;-68
2022/01/17 04:34:53;;;;;;;18.65;9.25;;;;;;;;;;5095167;28;20059;-68
2022/01/17 04:37:19;;;;;;;25.70;10.80;;;;;;;;;;5095919;28;20036;-68
2022/01/17 04:39:45;;;;;;;20.13;10.05;;;;;;;;;;5096576;28;20024;-68
2022/01/17 04:42:13;;;;;;;20.98;10.48;;;;;;;;;;5096254;28;20040;-68
2022/01/17 04:47:29;;;;;;;23.02;10.32;;;;;;;;;;5096205;28;20030;-68
2022/01/17 04:49:55;;;;;;;31.75;14.27;;;;;;;;;;5096030;28;20028;-68
2022/01/17 04:52:22;;;;;;;35.80;15.40;;;;;;;;;;5095620;28;20050;-68
2022/01/17 04:54:53;;;;;;;34.90;16.73;;;;;;;;;;5096009;28;20540;-69
2022/01/17 04:57:21;;;;;;;42.25;22.17;;;;;;;;;;5096365;28;20163;-68
2022/01/17 04:59:47;;;;;;;38.88;19.55;;;;;;;;;;5095469;28;20468;-68
2022/01/17 05:02:13;;;;;;;37.92;19.00;;;;;;;;;;5095864;28;20067;-69
2022/01/17 05:04:39;;;;;;;39.17;19.08;;;;;;;;;;5095893;28;20028;-70
2022/01/17 05:07:06;;;;;;;54.90;24.98;;;;;;;;;;5095505;28;20028;-69
2022/01/17 05:09:32;;;;;;;49.47;21.10;;;;;;;;;;5095775;28;20035;-69
2022/01/17 05:11:59;;;;;;;38.95;19.25;;;;;;;;;;5095717;28;20024;-68
2022/01/17 05:14:26;;;;;;;41.65;16.73;;;;;;;;;;5095661;28;20055;-69
2022/01/17 05:17:01;;;;;;;34.67;15.60;;;;;;;;;;5095457;28;20039;-69
2022/01/17 05:22:12;;;;;;;31.95;13.15;;;;;;;;;;5095596;28;20396;-68
2022/01/17 05:24:38;;;;;;;28.40;13.52;;;;;;;;;;5095950;28;20035;-68
2022/01/17 05:27:04;;;;;;;33.67;14.85;;;;;;;;;;5095047;28;20103;-68
2022/01/17 05:29:30;;;;;;;35.40;15.30;;;;;;;;;;5095501;28;20469;-68
2022/01/17 05:31:57;;;;;;;42.50;22.02;;;;;;;;;;5095293;28;20034;-68
2022/01/17 05:34:23;;;;;;;53.63;23.83;;;;;;;;;;5094922;28;20024;-67
2022/01/17 05:36:49;;;;;;;63.45;27.38;;;;;;;;;;5095674;28;20459;-67
2022/01/17 05:39:15;;;;;;;72.38;33.80;;;;;;;;;;5095104;28;20036;-67
2022/01/17 05:41:42;;;;;;;87.05;39.00;;;;;;;;;;5094637;28;20044;-68
2022/01/17 05:44:08;;;;;;;79.35;39.97;;;;;;;;;;5095071;28;20035;-67
2022/01/17 05:46:34;;;;;;;82.72;37.38;;;;;;;;;;5094937;28;20024;-67
2022/01/17 05:49:00;;;;;;;60.72;30.73;;;;;;;;;;5094676;28;20439;-67
2022/01/17 05:51:27;;;;;;;52.88;25.98;;;;;;;;;;5095178;28;20027;-68
2022/01/17 05:53:53;;;;;;;53.75;26.33;;;;;;;;;;5093706;28;20484;-67
2022/01/17 05:56:19;;;;;;;54.30;27.33;;;;;;;;;;5094239;28;20036;-67
2022/01/17 05:58:45;;;;;;;52.92;27.52;;;;;;;;;;5095128;28;20395;-67
2022/01/17 06:01:13;;;;;;;56.30;29.27;;;;;;;;;;5095151;28;20048;-67
2022/01/17 06:03:39;;;;;;;44.78;23.90;;;;;;;;;;5095211;28;20016;-67
2022/01/17 06:06:06;;;;;;;54.25;27.42;;;;;;;;;;5094612;28;20035;-67
2022/01/17 06:08:32;;;;;;;88.78;42.33;;;;;;;;;;5094284;28;20020;-67
2022/01/17 06:10:58;;;;;;;85.78;43.45;;;;;;;;;;5094240;28;20028;-67
2022/01/17 06:13:25;;;;;;;76.72;36.80;;;;;;;;;;5090809;28;20032;-64
2022/01/17 06:15:51;;;;;;;75.82;37.65;;;;;;;;;;5092244;28;20050;-65
2022/01/17 06:18:17;;;;;;;86.60;38.22;;;;;;;;;;5093692;28;20055;-65
2022/01/17 06:20:44;;;;;;;91.80;43.08;;;;;;;;;;5093141;28;20043;-65
2022/01/17 06:23:10;;;;;;;92.20;41.33;;;;;;;;;;5091771;28;20103;-64
2022/01/17 06:25:36;;;;;;;111.18;48.42;;;;;;;;;;5092019;28;20205;-65
2022/01/17 06:28:02;;;;;;;90.82;41.10;;;;;;;;;;5091505;28;20024;-66
2022/01/17 06:30:28;;;;;;;85.15;40.42;;;;;;;;;;5092910;28;20028;-69
2022/01/17 06:32:55;;;;;;;115.80;52.72;;;;;;;;;;5093818;28;20028;-66
2022/01/17 06:35:21;;;;;;;77.00;39.45;;;;;;;;;;5092890;28;20028;-67
2022/01/17 06:37:48;;;;;;;68.75;34.17;;;;;;;;;;5091440;28;20068;-68
2022/01/17 06:40:15;;;;;;;75.00;39.60;;;;;;;;;;5091814;28;20031;-68
2022/01/17 06:42:42;;;;;;;100.40;48.28;;;;;;;;;;5091803;28;20468;-68
2022/01/17 06:45:09;;;;;;;89.80;46.80;;;;;;;;;;5091090;28;20078;-67
2022/01/17 06:47:36;;;;;;;91.63;45.22;;;;;;;;;;5091154;28;20502;-67
2022/01/17 06:50:08;;;;;;;49.47;25.00;;;;;;;;;;5091485;28;20028;-67
2022/01/17 06:52:34;;;;;;;30.85;16.90;;;;;;;;;;5093370;28;20492;-68
2022/01/17 06:55:01;;;;;;;46.20;25.00;;;;;;;;;;5093158;28;20066;-66
2022/01/17 06:57:27;;;;;;;35.08;19.17;;;;;;;;;;5092653;28;20063;-67
2022/01/17 06:59:55;;;;;;;33.75;18.60;;;;;;;;;;5093558;28;20103;-68
2022/01/17 07:02:21;;;;;;;48.72;26.52;;;;;;;;;;5093564;28;20392;-68
2022/01/17 07:04:47;;;;;;;48.70;26.58;;;;;;;;;;5092973;28;20019;-67
2022/01/17 07:07:13;;;;;;;45.42;26.52;;;;;;;;;;5093464;28;20024;-66
2022/01/17 07:09:40;;;;;;;46.25;24.13;;;;;;;;;;5092801;28;20051;-67
2022/01/17 07:12:06;;;;;;;45.95;26.17;;;;;;;;;;5084630;28;20066;-65
2022/01/17 07:14:33;;;;;;;49.92;23.52;;;;;;;;;;5093329;28;20525;-67
2022/01/17 07:16:59;;;;;;;41.22;24.02;;;;;;;;;;5092806;28;20048;-66
2022/01/17 07:19:25;;;;;;;47.90;25.75;;;;;;;;;;5092156;28;20021;-65
2022/01/17 07:21:52;;;;;;;38.28;19.77;;;;;;;;;;5092689;28;20059;-65
2022/01/17 07:24:18;;;;;;;49.15;23.45;;;;;;;;;;5092586;28;20376;-67
2022/01/17 07:26:45;;;;;;;32.88;16.67;;;;;;;;;;5092250;28;20024;-66
2022/01/17 07:29:13;;;;;;;26.02;13.55;;;;;;;;;;5092955;28;20392;-66
2022/01/17 07:31:39;;;;;;;21.55;12.48;;;;;;;;;;5091154;28;20026;-67
2022/01/17 07:34:07;;;;;;;20.20;10.25;;;;;;;;;;5091957;28;20024;-66
2022/01/17 07:36:33;;;;;;;18.02;9.70;;;;;;;;;;5092555;28;20063;-67
2022/01/17 07:39:00;;;;;;;56.67;28.38;;;;;;;;;;5092982;28;20024;-66
2022/01/17 07:41:26;;;;;;;76.28;39.38;;;;;;;;;;5091822;28;20094;-67
2022/01/17 07:43:53;;;;;;;108.72;55.95;;;;;;;;;;5092931;28;20422;-66
2022/01/17 07:46:25;;;;;;;78.07;40.70;;;;;;;;;;5092425;28;20020;-66
2022/01/17 07:49:10;;;;;;;81.80;42.45;;;;;;;;;;5091916;28;20111;-67
2022/01/17 07:51:41;;;;;;;88.43;42.40;;;;;;;;;;5092380;28;20464;-67
2022/01/17 07:54:10;;;;;;;91.13;51.22;;;;;;;;;;5091945;28;20036;-67
2022/01/17 07:56:36;;;;;;;78.22;47.72;;;;;;;;;;5086682;28;20032;-66
2022/01/17 07:59:04;;;;;;;89.65;50.03;;;;;;;;;;5093304;28;20030;-65
2022/01/17 08:01:30;;;;;;;70.05;40.17;;;;;;;;;;5095644;28;20051;-66
2022/01/17 08:03:56;;;;;;;69.80;41.60;;;;;;;;;;5095734;28;20032;-66
2022/01/17 08:06:22;;;;;;;85.43;42.88;;;;;;;;;;5096409;28;20051;-66
2022/01/17 08:08:49;;;;;;;84.90;46.58;;;;;;;;;;5095418;28;20020;-66
2022/01/17 08:11:15;;;;;;;72.47;38.88;;;;;;;;;;5094042;28;20499;-66
2022/01/17 08:13:41;;;;;;;63.05;36.72;;;;;;;;;;5095327;28;20024;-67
2022/01/17 08:16:08;;;;;;;70.60;40.95;;;;;;;;;;5094797;28;20044;-66
2022/01/17 08:18:34;;;;;;;77.10;41.22;;;;;;;;;;5095521;28;20386;-66
2022/01/17 08:21:03;;;;;;;81.82;41.45;;;;;;;;;;5088813;28;20108;-67
2022/01/17 08:23:30;;;;;;;62.13;35.42;;;;;;;;;;5095044;28;20020;-67
2022/01/17 08:25:56;;;;;;;64.97;34.78;;;;;;;;;;5096321;28;20037;-68
2022/01/17 08:28:22;;;;;;;61.88;38.72;;;;;;;;;;5095365;28;20372;-66
2022/01/17 08:30:49;;;;;;;72.35;39.17;;;;;;;;;;5095797;28;20426;-67
2022/01/17 08:33:15;;;;;;;72.53;41.88;;;;;;;;;;5095463;28;20035;-64
2022/01/17 08:35:41;;;;;;;67.78;40.13;;;;;;;;;;5093270;28;20107;-65
2022/01/17 08:38:07;;;;;;;64.00;39.75;;;;;;;;;;5095164;28;20032;-68
2022/01/17 08:40:33;;;;;;;70.15;38.90;;;;;;;;;;5095611;28;20020;-68
2022/01/17 08:43:00;;;;;;;56.85;30.80;;;;;;;;;;5094929;28;20130;-68
2022/01/17 08:45:27;;;;;;;62.17;34.95;;;;;;;;;;5095361;28;20507;-67
2022/01/17 08:47:54;;;;;;;57.25;33.78;;;;;;;;;;5094846;28;20062;-67
2022/01/17 08:50:22;;;;;;;49.83;28.13;;;;;;;;;;5094412;28;20030;-67
2022/01/17 08:52:48;;;;;;;57.17;31.98;;;;;;;;;;5094954;28;20016;-68
2022/01/17 08:55:15;;;;;;;46.65;27.95;;;;;;;;;;5095182;28;20103;-67
2022/01/17 08:57:42;;;;;;;44.95;24.00;;;;;;;;;;5094511;28;20779;-68
2022/01/17 09:00:14;;;;;;;43.85;24.38;;;;;;;;;;5088870;28;20012;-67
2022/01/17 09:02:41;;;;;;;40.42;22.75;;;;;;;;;;5095154;28;20028;-66
2022/01/17 09:05:07;;;;;;;43.80;22.92;;;;;;;;;;5094894;28;20027;-66
2022/01/17 09:07:34;;;;;;;39.75;21.70;;;;;;;;;;5094521;28;20032;-67
2022/01/17 09:10:00;;;;;;;35.55;22.23;;;;;;;;;;5093057;28;20118;-66
2022/01/17 09:12:26;;;;;;;57.05;31.95;;;;;;;;;;5091866;28;20035;-66
2022/01/17 09:14:52;;;;;;;64.72;30.92;;;;;;;;;;5094123;28;20023;-65
2022/01/17 09:17:19;;;;;;;64.80;39.40;;;;;;;;;;5093861;28;20055;-64
2022/01/17 09:19:46;;;;;;;42.55;25.63;;;;;;;;;;5093008;28;20400;-68
2022/01/17 09:22:12;;;;;;;45.78;26.75;;;;;;;;;;5094483;28;20095;-68
2022/01/17 09:24:39;;;;;;;65.50;36.35;;;;;;;;;;5094092;28;20028;-69
2022/01/17 09:27:07;;;;;;;59.10;33.30;;;;;;;;;;5092937;28;20043;-69
2022/01/17 09:29:33;;;;;;;51.33;28.30;;;;;;;;;;5093016;28;20050;-69
2022/01/17 09:32:00;;;;;;;68.40;33.28;;;;;;;;;;5092275;28;20426;-68
2022/01/17 09:34:26;;;;;;;68.75;32.67;;;;;;;;;;5093010;28;20093;-68
2022/01/17 09:36:53;;;;;;;70.95;33.20;;;;;;;;;;5092923;28;20028;-67
2022/01/17 09:39:20;;;;;;;103.05;44.72;;;;;;;;;;5092822;28;20020;-66
2022/01/17 09:41:46;;;;;;;74.00;34.42;;;;;;;;;;5093839;28;20020;-69
2022/01/17 09:44:13;;;;;;;83.68;41.88;;;;;;;;;;5094795;28;20535;-69
2022/01/17 09:46:45;;;;;;;54.88;31.92;;;;;;;;;;5094141;28;20025;-67
2022/01/17 09:49:23;;;;;;;211.07;86.63;;;;;;;;;;5094804;28;20090;-66
2022/01/17 09:54:24;;;;;;;65.70;34.05;;;;;;;;;;5093332;28;20030;-67
2022/01/17 09:56:51;;;;;;;43.67;26.10;;;;;;;;;;5093695;28;20403;-66
2022/01/17 09:59:17;;;;;;;35.45;20.83;;;;;;;;;;5092209;28;20028;-68
2022/01/17 10:01:44;;;;;;;33.33;22.25;;;;;;;;;;5093810;28;20380;-70
2022/01/17 10:04:10;;;;;;;35.92;18.20;;;;;;;;;;5092996;28;20032;-68
2022/01/17 10:06:44;;;;;;;34.88;19.80;;;;;;;;;;5094528;28;20401;-68
2022/01/17 10:09:21;;;;;;;31.90;17.80;;;;;;;;;;5093647;28;20044;-67
2022/01/17 10:12:01;;;;;;;29.70;18.25;;;;;;;;;;5089906;28;20525;-68
2022/01/17 10:14:28;;;;;;;51.67;25.25;;;;;;;;;;5093547;28;20067;-67
2022/01/17 10:16:55;;;;;;;40.85;25.10;;;;;;;;;;5092148;28;20576;-68
2022/01/17 10:19:26;;;;;;;42.67;23.33;;;;;;;;;;5091295;28;20024;-68
2022/01/17 10:21:55;;;;;;;45.53;26.95;;;;;;;;;;5091033;28;20024;-69
2022/01/17 10:35:11;;;;;;;62.20;35.70;;;;;;;;;;5093699;28;20085;-69
2022/01/17 10:37:38;;;;;;;39.20;24.95;;;;;;;;;;5091501;28;20475;-69
2022/01/17 10:40:05;;;;;;;57.10;30.15;;;;;;;;;;5093270;28;20028;-69
2022/01/17 10:42:42;;;;;;;34.13;19.27;;;;;;;;;;5092887;28;20032;-69
2022/01/17 10:45:34;;;;;;;38.22;23.42;;;;;;;;;;5092714;28;20044;-66
2022/01/17 10:48:01;;;;;;;37.90;19.77;;;;;;;;;;5087443;28;20040;-67
2022/01/17 10:50:34;;;;;;;43.83;24.08;;;;;;;;;;5088347;28;20024;-67
2022/01/17 10:53:02;;;;;;;45.33;23.30;;;;;;;;;;5090392;28;20024;-67
2022/01/17 10:55:36;;;;;;;48.47;27.92;;;;;;;;;;5092013;28;20027;-66
2022/01/17 10:58:04;;;;;;;37.53;21.83;;;;;;;;;;5091765;28;20034;-66
2022/01/17 11:00:32;;;;;;;29.30;16.90;;;;;;;;;;5091188;28;20020;-67
2022/01/17 11:03:00;;;;;;;29.38;15.95;;;;;;;;;;5091729;28;20028;-66
2022/01/17 11:05:28;;;;;;;28.35;17.08;;;;;;;;;;5092571;28;20529;-68
2022/01/17 11:07:55;;;;;;;31.23;17.63;;;;;;;;;;5092740;28;20098;-67
2022/01/17 11:10:22;;;;;;;35.40;18.50;;;;;;;;;;5085107;28;20016;-67
2022/01/17 11:12:49;;;;;;;26.80;16.73;;;;;;;;;;5091196;28;20023;-67
2022/01/17 11:15:15;;;;;;;29.85;18.60;;;;;;;;;;5092102;28;20020;-67
2022/01/17 11:17:49;;;;;;;34.50;20.02;;;;;;;;;;5091039;28;20056;-67
2022/01/17 11:20:15;;;;;;;44.70;23.50;;;;;;;;;;5092656;28;20025;-67
2022/01/17 11:22:43;;;;;;;29.58;18.55;;;;;;;;;;5092329;28;20021;-67
2022/01/17 11:25:20;;;;;;;32.80;19.73;;;;;;;;;;5092227;28;20028;-67
2022/01/17 11:27:47;;;;;;;36.85;19.70;;;;;;;;;;5091573;28;20052;-67
2022/01/17 11:30:15;;;;;;;54.20;30.48;;;;;;;;;;5092562;28;20020;-67
2022/01/17 11:32:42;;;;;;;36.78;22.25;;;;;;;;;;5091710;28;20016;-68
2022/01/17 11:35:08;;;;;;;36.53;18.50;;;;;;;;;;5096981;28;20554;-66
2022/01/17 11:37:40;;;;;;;31.73;20.70;;;;;;;;;;5096570;28;20115;-67
2022/01/17 11:40:07;;;;;;;41.38;22.50;;;;;;;;;;5095912;28;20016;-67
2022/01/17 11:42:38;;;;;;;40.97;24.48;;;;;;;;;;5097161;28;20028;-67
2022/01/17 11:45:23;;;;;;;42.50;23.33;;;;;;;;;;5096934;28;20113;-66
2022/01/17 11:47:51;;;;;;;35.25;21.27;;;;;;;;;;5095856;28;20020;-66
2022/01/17 11:50:30;;;;;;;38.60;22.50;;;;;;;;;;5096595;28;20098;-66
2022/01/17 11:52:57;;;;;;;30.00;16.75;;;;;;;;;;5096494;28;20490;-67
2022/01/17 11:55:44;;;;;;;23.33;15.35;;;;;;;;;;5096200;28;20055;-66
2022/01/17 11:58:21;;;;;;;32.92;18.13;;;;;;;;;;5096384;28;20040;-67
2022/01/17 12:00:48;;;;;;;35.42;18.10;;;;;;;;;;5096283;28;20468;-67
2022/01/17 12:03:19;;;;;;;31.30;18.65;;;;;;;;;;5096159;28;20103;-66
2022/01/17 12:05:45;;;;;;;25.35;15.10;;;;;;;;;;5095394;28;20032;-67
2022/01/17 12:08:14;;;;;;;35.35;18.83;;;;;;;;;;5095323;28;20028;-66
2022/01/17 12:10:42;;;;;;;34.05;17.63;;;;;;;;;;5095913;28;20012;-66
2022/01/17 12:13:16;;;;;;;23.27;14.63;;;;;;;;;;5096406;28;20042;-66
2022/01/17 12:16:07;;;;;;;23.77;14.40;;;;;;;;;;5095452;28;20557;-66
2022/01/17 12:18:52;;;;;;;26.40;16.38;;;;;;;;;;5095925;28;20028;-67
2022/01/17 12:21:24;;;;;;;24.45;15.25;;;;;;;;;;5094394;28;20024;-67
2022/01/17 12:23:51;;;;;;;31.13;13.57;;;;;;;;;;5095738;28;20115;-67
2022/01/17 12:26:25;;;;;;;22.27;13.95;;;;;;;;;;5095992;28;20081;-67
2022/01/17 12:28:53;;;;;;;22.38;13.45;;;;;;;;;;5095629;28;20376;-66
2022/01/17 12:31:38;;;;;;;32.25;16.98;;;;;;;;;;5095372;28;20052;-68
2022/01/17 12:34:14;;;;;;;29.85;18.95;;;;;;;;;;5095833;28;20095;-65
2022/01/17 12:36:42;;;;;;;32.78;16.75;;;;;;;;;;5093799;28;20089;-66
2022/01/17 12:39:11;;;;;;;26.88;15.35;;;;;;;;;;5096039;28;20027;-67
2022/01/17 12:41:39;;;;;;;31.25;16.70;;;;;;;;;;5095360;28;20055;-67
2022/01/17 12:44:19;;;;;;;29.40;16.38;;;;;;;;;;5093720;28;20076;-67
2022/01/17 12:46:46;;;;;;;26.80;14.88;;;;;;;;;;5096123;28;20118;-68
2022/01/17 12:49:13;;;;;;;27.90;15.40;;;;;;;;;;5095591;28;20488;-68
2022/01/17 12:51:46;;;;;;;27.02;15.52;;;;;;;;;;5095825;28;20044;-66
2022/01/17 12:54:17;;;;;;;26.90;14.50;;;;;;;;;;5095868;28;20540;-68
2022/01/17 12:56:44;;;;;;;27.17;14.93;;;;;;;;;;5095218;28;20063;-68
2022/01/17 12:59:11;;;;;;;26.65;13.63;;;;;;;;;;5096166;28;20020;-68
2022/01/17 13:01:43;;;;;;;29.80;15.35;;;;;;;;;;5096371;28;20368;-68
2022/01/17 13:04:11;;;;;;;23.85;14.23;;;;;;;;;;5095612;28;20023;-70
2022/01/17 13:06:38;;;;;;;26.05;13.20;;;;;;;;;;5095969;28;20111;-67
2022/01/17 13:09:09;;;;;;;33.15;17.98;;;;;;;;;;5095830;28;20059;-68
2022/01/17 13:11:39;;;;;;;32.75;20.67;;;;;;;;;;5095426;28;20048;-69
2022/01/17 13:14:05;;;;;;;27.38;16.08;;;;;;;;;;5094288;28;20461;-70
2022/01/17 13:16:34;;;;;;;20.10;13.02;;;;;;;;;;5093456;28;20059;-69
2022/01/17 13:19:00;;;;;;;30.63;18.35;;;;;;;;;;5094114;28;20038;-67
2022/01/17 13:21:27;;;;;;;43.85;21.40;;;;;;;;;;5094348;28;20020;-67
2022/01/17 13:24:14;;;;;;;28.40;13.93;;;;;;;;;;5095106;28;20074;-67
2022/01/17 13:26:51;;;;;;;29.30;17.10;;;;;;;;;;5095601;28;20024;-67
2022/01/17 13:29:18;;;;;;;25.58;14.70;;;;;;;;;;5095377;28;20024;-67
2022/01/17 13:31:44;;;;;;;26.00;15.30;;;;;;;;;;5094927;28;20044;-67
2022/01/17 13:34:12;;;;;;;27.20;13.02;;;;;;;;;;5095232;28;20095;-67
2022/01/17 13:36:39;;;;;;;36.00;19.65;;;;;;;;;;5095163;28;20043;-67
2022/01/17 13:39:09;;;;;;;30.20;17.60;;;;;;;;;;5094929;28;20020;-67
2022/01/17 13:41:36;;;;;;;36.03;18.70;;;;;;;;;;5095090;28;20024;-67
2022/01/17 13:44:03;;;;;;;29.40;18.42;;;;;;;;;;5095034;28;20048;-67
2022/01/17 13:46:29;;;;;;;25.88;15.65;;;;;;;;;;5094658;28;20020;-66
2022/01/17 13:48:55;;;;;;;40.80;19.90;;;;;;;;;;5095036;28;20032;-67
2022/01/17 13:51:23;;;;;;;43.60;24.13;;;;;;;;;;5094638;28;20028;-66
2022/01/17 13:53:49;;;;;;;39.22;21.27;;;;;;;;;;5094358;28;20048;-66
2022/01/17 13:56:18;;;;;;;49.08;29.13;;;;;;;;;;5093522;28;20020;-66
2022/01/17 13:58:46;;;;;;;44.78;25.90;;;;;;;;;;5094759;28;20047;-67
2022/01/17 14:01:15;;;;;;;38.50;23.42;;;;;;;;;;5094210;28;20060;-67
2022/01/17 14:03:43;;;;;;;39.70;26.02;;;;;;;;;;5094620;28;20032;-67
2022/01/17 14:06:14;;;;;;;45.63;27.85;;;;;;;;;;5094466;28;20061;-67
2022/01/17 14:08:44;;;;;;;41.00;25.48;;;;;;;;;;5094115;28;20031;-67
2022/01/17 14:11:15;;;;;;;26.95;15.85;;;;;;;;;;5094543;28;20517;-68
2022/01/17 14:13:48;;;;;;;21.60;13.20;;;;;;;;;;5094241;28;20032;-67
2022/01/17 14:16:14;;;;;;;25.95;15.15;;;;;;;;;;5094146;28;20430;-68
2022/01/17 14:18:41;;;;;;;29.70;18.65;;;;;;;;;;5094486;28;20045;-69
2022/01/17 14:21:07;;;;;;;25.05;15.13;;;;;;;;;;5093935;28;20036;-68
2022/01/17 14:23:35;;;;;;;25.25;12.85;;;;;;;;;;5094869;28;20468;-68
2022/01/17 14:26:02;;;;;;;32.22;18.33;;;;;;;;;;5094506;28;20423;-69
2022/01/17 14:28:34;;;;;;;28.20;16.65;;;;;;;;;;5093873;28;20533;-67
2022/01/17 14:31:13;;;;;;;17.23;10.27;;;;;;;;;;5094058;28;20559;-67
2022/01/17 14:33:41;;;;;;;27.55;13.32;;;;;;;;;;5094147;28;20091;-67
2022/01/17 14:36:11;;;;;;;32.22;16.88;;;;;;;;;;5093668;28;20384;-67
2022/01/17 14:39:05;;;;;;;32.40;19.10;;;;;;;;;;5093965;28;20484;-67
2022/01/17 14:41:40;;;;;;;36.38;19.77;;;;;;;;;;5092482;28;20112;-67
2022/01/17 14:44:08;;;;;;;36.40;18.90;;;;;;;;;;5094320;28;20020;-67
2022/01/17 14:46:35;;;;;;;39.42;20.80;;;;;;;;;;5093961;28;20024;-67
2022/01/17 14:49:01;;;;;;;34.45;18.45;;;;;;;;;;5093546;28;20087;-67
2022/01/17 14:51:34;;;;;;;32.10;16.65;;;;;;;;;;5093862;28;20020;-69